Station History

Weather Underground - logo

Station Historical Data
Daily Summary for January 23, 2018 Units:  Metric    English   Both
« Previous Day
Next Day »
Daily Weekly Monthly Yearly Custom
  High: Low: Average:
Temperature: -17.8 °C 1.6 °C 8.3 °C
Dew Point: -17.8 °C 0.7 °C 4.8 °C
Humidity: Humidity % 54 % 80 %
Wind Speed: 0 km/h 0 km/h 0.6 km/h
Wind Gust: 0 km/h - -
Wind:- - WNW
Pressure: 0 hPa 1023.2 hPa -
Precipitation: 0 mm    
Historical Graphs
 
 
Tabular Data for January 23, 2018
Time Temperature Dew Point Pressure Wind Wind Speed Wind Gust Humidity Rainfall Rate (Hourly)
-17.8 °C -17.8 °C 0 hPa Calm     Humidity % 0 mm
00:02 5.2 °C 3.7 °C 1026.3 hPa Calm     90 % 0 mm
00:07 5.1 °C 3.6 °C 1026.3 hPa NNW 1.9 km/h   90 % 0 mm
00:12 5.4 °C 3.9 °C 1026.3 hPa NNW 1.9 km/h 1.9 km/h 90 % 0 mm
00:17 5.6 °C 3.9 °C 1026.3 hPa North 1.9 km/h   89 % 0 mm
00:27 5.6 °C 3.7 °C 1026.3 hPa Calm     88 % 0 mm
00:32 5.5 °C 3.5 °C 1026.3 hPa Calm     87 % 0 mm
00:37 5.3 °C 3.5 °C 1026.3 hPa NNW 1.9 km/h   88 % 0 mm
00:42 5.3 °C 3.4 °C 1026.3 hPa NNW 1.9 km/h   88 % 0 mm
00:47 5.2 °C 3.3 °C 1026.3 hPa NNW 1.9 km/h   88 % 0 mm
00:52 5.2 °C 3.3 °C 1026.3 hPa Calm     88 % 0 mm
00:57 5.3 °C 3.6 °C 1026.3 hPa NW 1.9 km/h 1.9 km/h 89 % 0 mm
01:02 5.3 °C 3.5 °C 1026.3 hPa Calm     88 % 0 mm
01:05 5.4 °C 3.6 °C 1026.3 hPa WNW 1.9 km/h   88 % 0 mm
01:10 5.6 °C 3.8 °C 1026.3 hPa WNW 1.9 km/h   88 % 0 mm
01:15 5.7 °C 3.7 °C 1026.3 hPa Calm     87 % 0 mm
01:20 5.8 °C 3.8 °C 1026.3 hPa NNW 1.6 km/h   87 % 0 mm
01:25 5.9 °C 3.9 °C 1026.3 hPa Calm     87 % 0 mm
01:30 5.9 °C 3.8 °C 1026.3 hPa NNW 1.9 km/h   86 % 0 mm
01:35 5.9 °C 3.8 °C 1026.3 hPa Calm     86 % 0 mm
01:40 5.8 °C 3.7 °C 1026.3 hPa Calm     86 % 0 mm
01:45 5.8 °C 3.6 °C 1026.3 hPa Calm     86 % 0 mm
01:50 5.7 °C 3.7 °C 1026.3 hPa Calm     87 % 0 mm
01:55 5.5 °C 3.3 °C 1026.3 hPa Calm   0.2 km/h 86 % 0 mm
02:00 5.3 °C 3.3 °C 1026.3 hPa Calm     87 % 0 mm
02:05 5.2 °C 3.2 °C 1026.3 hPa NNW 7.4 km/h   87 % 0 mm
02:10 4.8 °C 2.7 °C 1026.3 hPa Calm     86 % 0 mm
02:15 4.2 °C 2.3 °C 1026.3 hPa Calm     88 % 0 mm
02:20 3.9 °C 2.3 °C 1026.3 hPa Calm     89 % 0 mm
02:25 3.7 °C 2.2 °C 1026.3 hPa Calm     90 % 0 mm
02:30 3.6 °C 2.1 °C 1026.3 hPa Calm     90 % 0 mm
02:35 3.3 °C 1.8 °C 1026.3 hPa Calm     90 % 0 mm
02:40 3.1 °C 1.6 °C 1026.3 hPa Calm     90 % 0 mm
02:45 2.9 °C 1.4 °C 1026.3 hPa Calm     90 % 0 mm
02:50 2.8 °C 1.4 °C 1026.3 hPa Calm     91 % 0 mm
02:55 2.8 °C 1.6 °C 1026.3 hPa Calm     92 % 0 mm
03:00 2.9 °C 1.7 °C 1026.3 hPa Calm     92 % 0 mm
03:05 3.1 °C 1.9 °C 1026.3 hPa Calm     92 % 0 mm
03:10 3.2 °C 2 °C 1026.6 hPa Calm     92 % 0 mm
03:15 3.3 °C 2.3 °C 1026.6 hPa Calm     93 % 0 mm
03:21 3.4 °C 2.4 °C 1026.6 hPa Calm     93 % 0 mm
03:26 3.4 °C 2.4 °C 1026.6 hPa Calm     93 % 0 mm
03:31 3.4 °C 2.3 °C 1026.6 hPa Calm     92 % 0 mm
03:36 3.4 °C 2.2 °C 1026.6 hPa Calm     92 % 0 mm
03:41 3.4 °C 2.3 °C 1026.3 hPa Calm     92 % 0 mm
03:46 3.4 °C 2.3 °C 1026.3 hPa Calm     92 % 0 mm
03:51 3.4 °C 2.2 °C 1026.3 hPa Calm     92 % 0 mm
03:56 3.3 °C 1.9 °C 1026.3 hPa Calm     91 % 0 mm
04:01 3.1 °C 1.7 °C 1026.3 hPa Calm     91 % 0 mm
04:06 2.9 °C 1.6 °C 1026.3 hPa Calm     91 % 0 mm
04:11 2.8 °C 1.7 °C 1026.3 hPa Calm     92 % 0 mm
04:16 2.8 °C 1.6 °C 1026.3 hPa Calm     92 % 0 mm
04:21 2.4 °C 1.1 °C 1026.3 hPa Calm     91 % 0 mm
04:26 2.2 °C 0.8 °C 1026.3 hPa Calm     91 % 0 mm
04:31 2.1 °C 0.9 °C 1026 hPa Calm     92 % 0 mm
04:36 2 °C 0.8 °C 1026 hPa Calm     92 % 0 mm
04:46 1.9 °C 0.9 °C 1026 hPa Calm     93 % 0 mm
04:51 1.8 °C 0.8 °C 1026 hPa Calm     93 % 0 mm
04:56 2 °C 1 °C 1026 hPa Calm     93 % 0 mm
05:06 2.2 °C 1.3 °C 1026 hPa Calm     94 % 0 mm
05:11 2.2 °C 1.3 °C 1026 hPa Calm     94 % 0 mm
05:16 2.2 °C 1.2 °C 1026 hPa Calm     93 % 0 mm
05:21 2.1 °C 1.1 °C 1026 hPa Calm     93 % 0 mm
05:26 2.1 °C 1.1 °C 1026 hPa Calm     93 % 0 mm
05:31 2 °C 1 °C 1026 hPa Calm     93 % 0 mm
05:36 2 °C 1 °C 1026.3 hPa Calm     93 % 0 mm
05:41 2.1 °C 1.2 °C 1026.3 hPa Calm     94 % 0 mm
05:46 2.3 °C 1.4 °C 1026.3 hPa Calm     94 % 0 mm
05:51 2.4 °C 1.5 °C 1026.3 hPa Calm     94 % 0 mm
05:56 2.4 °C 1.5 °C 1026.3 hPa Calm     94 % 0 mm
06:01 2.3 °C 1.4 °C 1026.3 hPa Calm     94 % 0 mm
06:11 2.2 °C 1.3 °C 1026.3 hPa Calm     94 % 0 mm
06:16 2.3 °C 1.4 °C 1026.3 hPa Calm     94 % 0 mm
06:21 2.3 °C 1.4 °C 1026.3 hPa Calm     94 % 0 mm
06:26 2.3 °C 1.4 °C 1026.3 hPa Calm     94 % 0 mm
06:31 2.3 °C 1.4 °C 1026.3 hPa Calm     94 % 0 mm
06:36 2.1 °C 1.2 °C 1026.3 hPa Calm     94 % 0 mm
06:41 1.9 °C 1.1 °C 1026.3 hPa Calm     94 % 0 mm
06:51 1.7 °C 0.8 °C 1026.3 hPa Calm     94 % 0 mm
06:56 1.7 °C 0.8 °C 1026.3 hPa Calm     94 % 0 mm
07:06 1.6 °C 0.7 °C 1026.6 hPa Calm     94 % 0 mm
07:11 1.8 °C 0.9 °C 1026.6 hPa Calm     94 % 0 mm
07:16 1.8 °C 0.9 °C 1026.3 hPa North 1.9 km/h 1.9 km/h 94 % 0 mm
07:21 1.9 °C 1 °C 1026.3 hPa Calm     94 % 0 mm
07:26 2 °C 1.1 °C 1026.3 hPa North 1.9 km/h 1.9 km/h 94 % 0 mm
07:31 2.1 °C 1.2 °C 1026.3 hPa Calm     94 % 0 mm
07:36 2.3 °C 1.4 °C 1026.3 hPa Calm     94 % 0 mm
07:41 2.6 °C 1.7 °C 1026.3 hPa Calm     94 % 0 mm
07:46 2.9 °C 2.2 °C 1026.3 hPa North 1.9 km/h   95 % 0 mm
07:51 3.2 °C 2.5 °C 1026.3 hPa Calm     95 % 0 mm
07:56 3.6 °C 2.7 °C 1026.3 hPa Calm     94 % 0 mm
08:01 4.1 °C 3.2 °C 1026.6 hPa Calm     94 % 0 mm
08:06 4.9 °C 4 °C 1026.3 hPa Calm     94 % 0 mm
08:11 5.6 °C 4.2 °C 1026.3 hPa Calm     91 % 0 mm
08:16 6.2 °C 4.5 °C 1026.3 hPa Calm     89 % 0 mm
08:21 6.7 °C 4.7 °C 1026.3 hPa Calm     87 % 0 mm
08:31 7.6 °C 4.8 °C 1026.6 hPa Calm     83 % 0 mm
08:36 7.7 °C 4.8 °C 1026.6 hPa Calm     82 % 0 mm
08:41 7.8 °C 4.8 °C 1026.6 hPa Calm     81 % 0 mm
08:46 8.1 °C 5.1 °C 1026.6 hPa Calm     81 % 0 mm
08:56 8.7 °C 5.1 °C 1026.6 hPa Calm     78 % 0 mm
09:01 9.2 °C 5.9 °C 1026.6 hPa Calm     80 % 0 mm
09:06 9.8 °C 6.6 °C 1026.6 hPa Calm     80 % 0 mm
09:11 10.2 °C 6.5 °C 1026.6 hPa Calm     78 % 0 mm
09:16 9.6 °C 6.2 °C 1026.6 hPa WNW 1.9 km/h   79 % 0 mm
09:21 9.5 °C 6.2 °C 1026.6 hPa Calm     80 % 0 mm
09:27 10.2 °C 6.5 °C 1026.6 hPa Calm     78 % 0 mm
09:31 10.7 °C 6.2 °C 1026.6 hPa SSE 1.6 km/h   74 % 0 mm
09:37 10.9 °C 5.9 °C 1026.6 hPa ENE 1.9 km/h 1.9 km/h 71 % 0 mm
09:42 11.1 °C 6.3 °C 1026.6 hPa Calm     72 % 0 mm
09:47 11.3 °C 6.3 °C 1027 hPa WNW 1.9 km/h 1.9 km/h 71 % 0 mm
09:52 11.4 °C 6.3 °C 1027 hPa SE 1.9 km/h 1.9 km/h 71 % 0 mm
09:57 11.6 °C 6.1 °C 1027 hPa Calm     69 % 0 mm
10:02 11.6 °C 5.8 °C 1027 hPa NW 1.9 km/h 1.9 km/h 68 % 0 mm
10:07 11.3 °C 5.8 °C 1027 hPa Calm     69 % 0 mm
10:12 11.1 °C 5.4 °C 1027 hPa NW 1.9 km/h 1.9 km/h 68 % 0 mm
10:17 11.2 °C 5.5 °C 1027 hPa Calm     68 % 0 mm
10:22 11.4 °C 5.7 °C 1027 hPa Calm     68 % 0 mm
10:27 11.6 °C 5.7 °C 1026.6 hPa Calm     67 % 0 mm
10:32 12.1 °C 5.9 °C 1026.6 hPa Calm     66 % 0 mm
10:37 12.4 °C 6.2 °C 1026.6 hPa Calm     66 % 0 mm
10:42 12.2 °C 6.1 °C 1026.6 hPa Calm     66 % 0 mm
10:47 12.4 °C 6.1 °C 1026.6 hPa Calm     65 % 0 mm
10:52 12.3 °C 5.4 °C 1026.6 hPa WNW 1.9 km/h 1.9 km/h 63 % 0 mm
10:57 12.3 °C 5.7 °C 1026.6 hPa ESE 1.9 km/h   64 % 0 mm
11:02 12.6 °C 5.7 °C 1026.3 hPa NW 3.7 km/h 3.7 km/h 63 % 0 mm
11:07 12.7 °C 5.6 °C 1026.3 hPa WNW 3.7 km/h 3.7 km/h 62 % 0 mm
11:12 12.7 °C 6.3 °C 1026.3 hPa Calm     65 % 0 mm
11:17 12.9 °C 6 °C 1026.3 hPa NW 3.7 km/h 3.7 km/h 63 % 0 mm
11:22 12.8 °C 5.7 °C 1026.3 hPa WNW 1.9 km/h 1.9 km/h 62 % 0 mm
11:32 13 °C 5.9 °C 1026 hPa NNW 3.7 km/h 3.7 km/h 62 % 0 mm
11:37 13.1 °C 6 °C 1026 hPa Calm   0.2 km/h 62 % 0 mm
11:42 13.6 °C 6.4 °C 1026 hPa Calm     62 % 0 mm
11:52 13.8 °C 6.2 °C 1025.6 hPa West 3.2 km/h 3.2 km/h 60 % 0 mm
11:57 13.8 °C 5.9 °C 1025.6 hPa West 3.7 km/h 3.7 km/h 59 % 0 mm
12:02 13.8 °C 6.2 °C 1025.6 hPa Calm     60 % 0 mm
12:07 14.1 °C 6.2 °C 1025.3 hPa WNW 3.7 km/h 3.7 km/h 59 % 0 mm
12:12 14.1 °C 6.4 °C 1025.3 hPa NW 3.7 km/h 3.7 km/h 60 % 0 mm
12:17 14.6 °C 7.3 °C 1025.3 hPa Calm     62 % 0 mm
12:22 14.8 °C 6.6 °C 1025.3 hPa Calm     58 % 0 mm
12:27 14.8 °C 6.9 °C 1024.9 hPa WNW 1.9 km/h 1.9 km/h 59 % 0 mm
12:32 14.8 °C 6.6 °C 1024.9 hPa WNW 1.9 km/h 1.9 km/h 58 % 0 mm
12:37 14.8 °C 6.9 °C 1024.9 hPa ESE 3.7 km/h 3.7 km/h 59 % 0 mm
12:42 15 °C 7.1 °C 1024.6 hPa Calm     59 % 0 mm
12:47 15.2 °C 7.2 °C 1024.6 hPa Calm     59 % 0 mm
12:52 15.3 °C 7.1 °C 1024.6 hPa NW 1.9 km/h 1.9 km/h 58 % 0 mm
12:57 15.3 °C 7.1 °C 1024.6 hPa NW 1.9 km/h   58 % 0 mm
13:02 15.3 °C 7.1 °C 1024.3 hPa NW 1.9 km/h 1.9 km/h 58 % 0 mm
13:07 15.6 °C 7.3 °C 1024.3 hPa NW 3.7 km/h 3.7 km/h 58 % 0 mm
13:12 15.6 °C 7.1 °C 1024.3 hPa NW 3.7 km/h 3.7 km/h 57 % 0 mm
13:17 15.7 °C 7.2 °C 1024.3 hPa WNW 1.9 km/h 1.9 km/h 57 % 0 mm
13:22 15.8 °C 7.3 °C 1024.3 hPa NNW 1.9 km/h   57 % 0 mm
13:32 16.2 °C 7.7 °C 1023.9 hPa South 1.9 km/h   57 % 0 mm
13:37 16.3 °C 7.5 °C 1023.9 hPa NW 5.6 km/h 5.6 km/h 56 % 0 mm
13:47 16.5 °C 7.9 °C 1023.9 hPa Calm     57 % 0 mm
13:52 16.7 °C 7.3 °C 1023.9 hPa WNW 1.9 km/h 1.9 km/h 54 % 0 mm
13:57 16.6 °C 7.2 °C 1023.6 hPa WNW 1.9 km/h 1.9 km/h 54 % 0 mm
14:02 16.6 °C 7.7 °C 1023.6 hPa NW 5.6 km/h 5.6 km/h 56 % 0 mm
14:07 16.4 °C 7.6 °C 1023.6 hPa Calm     56 % 0 mm
14:12 16.6 °C 7.7 °C 1023.6 hPa NW 5.6 km/h 5.6 km/h 56 % 0 mm
14:17 16.5 °C 7.4 °C 1023.6 hPa Calm   1 km/h 55 % 0 mm
14:22 16.6 °C 7.7 °C 1023.6 hPa NNW 1.6 km/h   56 % 0 mm
14:32 16.7 °C 7.3 °C 1023.6 hPa WNW 1.9 km/h 1.9 km/h 54 % 0 mm
14:37 16.6 °C 7.7 °C 1023.6 hPa WNW 1.9 km/h   56 % 0 mm
14:42 16.7 °C 7.6 °C 1023.6 hPa Calm     55 % 0 mm
14:52 16.6 °C 7.8 °C 1023.6 hPa NW 3.7 km/h 3.7 km/h 56 % 0 mm
14:57 16.4 °C 7.9 °C 1023.2 hPa WNW 1.9 km/h   57 % 0 mm
15:02 16.4 °C 7.8 °C 1023.2 hPa Calm     57 % 0 mm
15:13 16.4 °C 8.1 °C 1023.2 hPa NW 5.6 km/h 5.6 km/h 58 % 0 mm
15:18 16.3 °C 7.7 °C 1023.2 hPa NW 5.6 km/h 5.6 km/h 57 % 0 mm
15:23 16.2 °C 7.9 °C 1023.2 hPa NW 1.9 km/h 1.9 km/h 58 % 0 mm
15:28 16.2 °C 7.9 °C 1023.2 hPa NNW 5.6 km/h 5.6 km/h 58 % 0 mm
15:33 16.1 °C 7.6 °C 1023.2 hPa WNW 1.9 km/h   57 % 0 mm
15:43 16.1 °C 8.1 °C 1023.2 hPa Calm     59 % 0 mm
15:48 16.1 °C 8.3 °C 1023.2 hPa Calm     60 % 0 mm
15:53 16.1 °C 8.1 °C 1023.2 hPa NW 1.9 km/h   59 % 0 mm
16:03 15.9 °C 8.1 °C 1023.2 hPa Calm     60 % 0 mm
16:08 15.8 °C 8.3 °C 1023.2 hPa Calm     61 % 0 mm
16:18 15.7 °C 8.2 °C 1023.2 hPa Calm     61 % 0 mm
16:23 15.6 °C 8.3 °C 1023.2 hPa Calm     62 % 0 mm
16:28 15.4 °C 8.2 °C 1023.2 hPa Calm     62 % 0 mm
16:33 15.3 °C 8.1 °C 1023.2 hPa Calm     62 % 0 mm
16:43 15.1 °C 8.1 °C 1023.2 hPa Calm     63 % 0 mm
16:48 14.9 °C 8.4 °C 1023.2 hPa Calm     65 % 0 mm
16:53 14.7 °C 8.2 °C 1023.2 hPa Calm     65 % 0 mm
16:58 14.5 °C 8.2 °C 1023.2 hPa Calm     66 % 0 mm
17:03 14.2 °C 8.4 °C 1023.2 hPa Calm     68 % 0 mm
17:08 13.9 °C 8.3 °C 1023.2 hPa Calm     69 % 0 mm
17:13 13.6 °C 8.2 °C 1023.2 hPa Calm     70 % 0 mm
17:18 13.3 °C 8.2 °C 1023.2 hPa Calm     71 % 0 mm
17:23 12.9 °C 8.2 °C 1023.2 hPa Calm     73 % 0 mm
17:28 12.6 °C 8.1 °C 1023.2 hPa Calm     74 % 0 mm
17:38 12.1 °C 8.4 °C 1023.2 hPa Calm     78 % 0 mm
17:43 11.9 °C 8.3 °C 1023.2 hPa Calm     79 % 0 mm
17:48 11.6 °C 8.4 °C 1023.6 hPa Calm     81 % 0 mm
17:58 11.2 °C 8.4 °C 1023.6 hPa Calm     83 % 0 mm
18:03 11 °C 8.2 °C 1023.6 hPa Calm     83 % 0 mm
18:08 10.8 °C 8.2 °C 1023.6 hPa Calm     84 % 0 mm
18:13 10.5 °C 8.1 °C 1023.6 hPa Calm     85 % 0 mm
18:18 10.3 °C 7.9 °C 1023.6 hPa Calm     85 % 0 mm
18:23 10.1 °C 7.9 °C 1023.6 hPa Calm     86 % 0 mm
18:28 10 °C 7.9 °C 1023.6 hPa Calm     87 % 0 mm
18:33 10 °C 7.8 °C 1023.6 hPa Calm     86 % 0 mm
18:38 9.9 °C 7.7 °C 1023.6 hPa Calm     86 % 0 mm
18:43 9.7 °C 7.5 °C 1023.6 hPa Calm     86 % 0 mm
18:48 9.5 °C 7.3 °C 1023.9 hPa Calm     86 % 0 mm
18:53 9.3 °C 7.1 °C 1023.9 hPa SSE 1.9 km/h   86 % 0 mm
18:58 9 °C 7.1 °C 1023.9 hPa Calm     88 % 0 mm
19:03 8.9 °C 7.2 °C 1023.9 hPa Calm     89 % 0 mm
19:08 8.8 °C 6.9 °C 1023.9 hPa Calm     88 % 0 mm
19:18 8.7 °C 6.9 °C 1023.9 hPa Calm     89 % 0 mm
19:48 8.8 °C 7.4 °C 1023.6 hPa Calm     91 % 0 mm
19:53 8.8 °C 7.3 °C 1023.9 hPa Calm     90 % 0 mm
19:58 8.6 °C 6.9 °C 1023.9 hPa Calm     89 % 0 mm
20:08 8.4 °C 6.7 °C 1023.9 hPa Calm     89 % 0 mm
20:18 8.3 °C 6.6 °C 1023.9 hPa Calm     89 % 0 mm
20:23 8.1 °C 6.6 °C 1023.9 hPa Calm     90 % 0 mm
20:28 7.9 °C 6.4 °C 1023.9 hPa Calm     90 % 0 mm
20:33 7.9 °C 6.5 °C 1023.9 hPa Calm     91 % 0 mm
20:43 7.7 °C 6.5 °C 1023.9 hPa Calm     92 % 0 mm
20:48 7.8 °C 6.6 °C 1023.9 hPa Calm     92 % 0 mm
20:53 7.7 °C 6.3 °C 1023.9 hPa Calm     91 % 0 mm
20:58 7.5 °C 6.1 °C 1023.9 hPa Calm     91 % 0 mm
21:03 7.4 °C 6.2 °C 1023.9 hPa Calm     92 % 0 mm
21:13 7.2 °C 5.9 °C 1023.9 hPa Calm     92 % 0 mm
21:18 7.1 °C 5.8 °C 1023.9 hPa Calm     92 % 0 mm
21:28 7 °C 5.9 °C 1023.9 hPa Calm     93 % 0 mm
21:33 6.9 °C 5.9 °C 1023.9 hPa Calm     93 % 0 mm
21:38 6.8 °C 5.8 °C 1023.9 hPa Calm     93 % 0 mm
21:43 6.7 °C 5.6 °C 1023.9 hPa Calm     93 % 0 mm
21:48 6.7 °C 5.6 °C 1023.9 hPa Calm     93 % 0 mm
21:53 6.6 °C 5.6 °C 1023.9 hPa Calm     93 % 0 mm
22:03 6.4 °C 5.4 °C 1023.9 hPa Calm     93 % 0 mm
22:08 6.2 °C 5.2 °C 1023.9 hPa Calm     93 % 0 mm
22:14 5.9 °C 4.9 °C 1023.9 hPa Calm     93 % 0 mm
22:18 5.8 °C 4.8 °C 1023.9 hPa Calm     93 % 0 mm
22:23 5.7 °C 4.7 °C 1023.9 hPa Calm     93 % 0 mm
22:28 5.7 °C 4.6 °C 1023.9 hPa Calm     93 % 0 mm
22:39 5.6 °C 4.5 °C 1023.9 hPa Calm     93 % 0 mm
22:43 5.6 °C 4.7 °C 1023.9 hPa Calm     94 % 0 mm
22:54 5.5 °C 4.4 °C 1023.6 hPa Calm     93 % 0 mm
22:59 5.4 °C 4.3 °C 1023.6 hPa Calm     93 % 0 mm
23:04 5.3 °C 4.3 °C 1023.6 hPa Calm     93 % 0 mm
23:09 5.4 °C 4.5 °C 1023.6 hPa Calm     94 % 0 mm
23:14 5.3 °C 4.4 °C 1023.6 hPa Calm     94 % 0 mm
23:19 5.2 °C 4.2 °C 1023.6 hPa Calm     93 % 0 mm
23:24 5.1 °C 4.1 °C 1023.6 hPa Calm     93 % 0 mm
23:34 4.4 °C 3.1 °C 1023.6 hPa Calm     91 % 0 mm
23:39 4.1 °C 2.7 °C 1023.6 hPa Calm     91 % 0 mm
23:49 3.9 °C 2.7 °C 1023.2 hPa Calm     92 % 0 mm
23:54 3.9 °C 2.9 °C 1023.2 hPa Calm     93 % 0 mm
23:59 4.1 °C 3.2 °C 1023.2 hPa Calm     94 % 0 mm
Park Place, Exeter, Tulare County, California, USA
Compliments of Weather Underground - 2.5 mb